createdAt,value
2023-03-22T00:00:24.020Z,354
2023-03-22T00:01:23.354Z,352
2023-03-22T00:03:23.042Z,347
2023-03-22T00:04:22.615Z,335
2023-03-22T00:05:22.636Z,340
2023-03-22T00:06:22.882Z,351
2023-03-22T00:07:23.225Z,356
2023-03-22T00:08:22.653Z,354
2023-03-22T00:09:23.240Z,353
2023-03-22T00:10:22.462Z,362
2023-03-22T00:11:22.696Z,364
2023-03-22T00:12:22.679Z,353
2023-03-22T00:13:22.536Z,350
2023-03-22T00:14:22.338Z,341
2023-03-22T00:15:22.188Z,352
2023-03-22T00:16:22.617Z,360
2023-03-22T00:17:22.985Z,362
2023-03-22T00:18:22.171Z,355
2023-03-22T00:19:22.309Z,362
2023-03-22T00:20:22.939Z,360
2023-03-22T00:21:22.934Z,347
2023-03-22T00:22:22.806Z,357
2023-03-22T00:23:22.471Z,352
2023-03-22T00:24:22.631Z,348
2023-03-22T00:25:22.936Z,354
2023-03-22T00:26:22.775Z,358
2023-03-22T00:27:22.488Z,357
2023-03-22T00:28:22.547Z,353
2023-03-22T00:29:22.593Z,352
2023-03-22T00:30:23.017Z,345
2023-03-22T00:31:22.670Z,343
2023-03-22T00:32:22.575Z,339
2023-03-22T00:33:22.710Z,347
2023-03-22T00:34:23.232Z,351
2023-03-22T00:35:23.097Z,350
2023-03-22T00:36:22.403Z,347
2023-03-22T00:37:22.770Z,346
2023-03-22T00:38:29.939Z,353
2023-03-22T00:39:22.610Z,357
2023-03-22T00:41:22.674Z,352
2023-03-22T00:42:22.226Z,351
2023-03-22T00:43:22.585Z,349
2023-03-22T00:44:22.820Z,353
2023-03-22T00:45:22.339Z,355
2023-03-22T00:47:22.636Z,356
2023-03-22T00:49:22.291Z,359
2023-03-22T00:50:23.060Z,357
2023-03-22T00:51:22.785Z,352
2023-03-22T00:52:22.738Z,343
2023-03-22T00:53:22.392Z,341
2023-03-22T00:54:22.253Z,349
2023-03-22T00:55:22.794Z,358
2023-03-22T00:56:22.207Z,356
2023-03-22T00:57:22.823Z,351
2023-03-22T00:58:22.054Z,346
2023-03-22T00:59:22.622Z,354
2023-03-22T01:00:23.650Z,362
2023-03-22T01:01:25.857Z,359
2023-03-22T01:02:22.735Z,357
2023-03-22T01:03:22.503Z,348
2023-03-22T01:04:22.108Z,347
2023-03-22T01:05:22.506Z,351
2023-03-22T01:07:27.627Z,358
2023-03-22T01:08:22.147Z,365
2023-03-22T01:09:22.940Z,357
2023-03-22T01:10:22.367Z,347
2023-03-22T01:11:21.872Z,350
2023-03-22T01:12:22.206Z,352
2023-03-22T01:13:22.489Z,349
2023-03-22T01:14:22.655Z,347
2023-03-22T01:15:22.755Z,348
2023-03-22T01:17:22.164Z,355
2023-03-22T01:18:23.021Z,358
2023-03-22T01:19:22.514Z,356
2023-03-22T01:20:22.359Z,358
2023-03-22T01:21:22.157Z,356
2023-03-22T01:22:22.392Z,349
2023-03-22T01:23:22.179Z,353
2023-03-22T01:24:22.941Z,354
2023-03-22T01:25:22.546Z,357
2023-03-22T01:26:22.023Z,360
2023-03-22T01:27:22.701Z,361
2023-03-22T01:28:22.139Z,344
2023-03-22T01:29:22.748Z,343
2023-03-22T01:30:23.151Z,350
2023-03-22T01:31:22.611Z,357
2023-03-22T01:32:22.435Z,365
2023-03-22T01:33:21.658Z,362
2023-03-22T01:34:22.420Z,350
2023-03-22T01:35:22.721Z,351
2023-03-22T01:36:22.148Z,342
2023-03-22T01:37:36.662Z,359
2023-03-22T01:38:22.331Z,364
2023-03-22T01:39:22.263Z,353
2023-03-22T01:40:22.190Z,349
2023-03-22T01:41:22.353Z,331
2023-03-22T01:42:22.190Z,332
2023-03-22T01:43:22.506Z,352
2023-03-22T01:44:22.262Z,344
2023-03-22T01:45:22.560Z,347
2023-03-22T01:48:22.228Z,351
2023-03-22T01:49:22.041Z,350
2023-03-22T01:50:23.039Z,353
2023-03-22T01:51:22.442Z,351
2023-03-22T01:52:22.078Z,359
2023-03-22T01:53:22.258Z,353
2023-03-22T01:54:22.649Z,355
2023-03-22T01:55:21.937Z,345
2023-03-22T01:56:22.170Z,342
2023-03-22T01:57:22.852Z,351
2023-03-22T01:58:22.051Z,354
2023-03-22T01:59:22.550Z,357
2023-03-22T02:00:23.054Z,355
2023-03-22T02:01:22.957Z,344
2023-03-22T02:02:22.327Z,346
2023-03-22T02:04:22.376Z,347
2023-03-22T02:05:22.538Z,358
2023-03-22T02:06:22.654Z,353
2023-03-22T02:07:22.727Z,347
2023-03-22T02:08:22.438Z,350
2023-03-22T02:09:22.570Z,364
2023-03-22T02:10:22.507Z,362
2023-03-22T02:11:22.604Z,367
2023-03-22T02:12:22.138Z,365
2023-03-22T02:13:22.749Z,363
2023-03-22T02:16:24.173Z,351
2023-03-22T02:17:22.513Z,361
2023-03-22T02:18:22.424Z,356
2023-03-22T02:19:21.932Z,351
2023-03-22T02:20:22.420Z,358
2023-03-22T02:22:22.379Z,357
2023-03-22T02:23:22.546Z,349
2023-03-22T02:24:22.298Z,355
2023-03-22T02:25:22.505Z,348
2023-03-22T02:27:22.243Z,350
2023-03-22T02:28:22.098Z,348
2023-03-22T02:29:22.590Z,356
2023-03-22T02:30:21.943Z,360
2023-03-22T02:31:22.739Z,357
2023-03-22T02:32:22.080Z,355
2023-03-22T02:33:22.662Z,350
2023-03-22T02:34:22.401Z,361
2023-03-22T02:35:22.387Z,356
2023-03-22T02:36:22.466Z,347
2023-03-22T02:37:22.706Z,364
2023-03-22T02:38:21.960Z,361
2023-03-22T02:41:21.983Z,351
2023-03-22T02:43:21.859Z,353
2023-03-22T02:44:22.377Z,362
2023-03-22T02:45:22.786Z,366
2023-03-22T02:46:22.545Z,355
2023-03-22T02:47:22.469Z,359
2023-03-22T02:48:22.335Z,370
2023-03-22T02:49:21.881Z,355
2023-03-22T02:50:22.972Z,350
2023-03-22T02:51:21.964Z,357
2023-03-22T02:52:22.867Z,352
2023-03-22T02:53:22.200Z,357
2023-03-22T02:54:22.349Z,367
2023-03-22T02:55:22.016Z,363
2023-03-22T02:56:22.663Z,359
2023-03-22T02:57:21.937Z,354
2023-03-22T02:58:21.782Z,348
2023-03-22T03:01:22.692Z,359
2023-03-22T03:02:22.280Z,353
2023-03-22T03:03:22.574Z,357
2023-03-22T03:04:22.387Z,367
2023-03-22T03:05:22.495Z,361
2023-03-22T03:06:23.035Z,368
2023-03-22T03:07:22.881Z,367
2023-03-22T03:08:22.365Z,365
2023-03-22T03:09:23.112Z,357
2023-03-22T03:10:22.661Z,348
2023-03-22T03:11:21.922Z,361
2023-03-22T03:12:21.976Z,368
2023-03-22T03:13:22.260Z,363
2023-03-22T03:14:22.571Z,359
2023-03-22T03:15:22.654Z,361
2023-03-22T03:16:21.776Z,366
2023-03-22T03:17:21.985Z,357
2023-03-22T03:18:21.935Z,361
2023-03-22T03:20:23.034Z,356
2023-03-22T03:21:21.948Z,366
2023-03-22T03:22:21.959Z,363
2023-03-22T03:23:22.064Z,354
2023-03-22T03:24:22.444Z,369
2023-03-22T03:25:22.089Z,372
2023-03-22T03:26:22.362Z,368
2023-03-22T03:27:22.498Z,362
2023-03-22T03:28:22.440Z,360
2023-03-22T03:29:23.077Z,366
2023-03-22T03:30:22.792Z,368
2023-03-22T03:31:22.520Z,363
2023-03-22T03:32:22.003Z,359
2023-03-22T03:33:21.946Z,358
2023-03-22T03:34:22.211Z,366
2023-03-22T03:35:22.936Z,362
2023-03-22T03:37:22.194Z,364
2023-03-22T03:38:21.925Z,362
2023-03-22T03:39:22.128Z,361
2023-03-22T03:40:22.431Z,366
2023-03-22T03:41:21.851Z,367
2023-03-22T03:42:21.920Z,364
2023-03-22T03:43:22.096Z,363
2023-03-22T03:44:22.124Z,358
2023-03-22T03:45:22.338Z,365
2023-03-22T03:46:22.230Z,372
2023-03-22T03:47:22.507Z,376
2023-03-22T03:48:21.951Z,364
2023-03-22T03:49:22.053Z,370
2023-03-22T03:50:22.340Z,373
2023-03-22T03:51:22.552Z,382
2023-03-22T03:52:22.088Z,370
2023-03-22T03:53:22.233Z,366
2023-03-22T03:54:36.497Z,358
2023-03-22T03:55:22.334Z,360
2023-03-22T03:56:22.500Z,364
2023-03-22T03:58:21.976Z,367
2023-03-22T03:59:22.841Z,364
2023-03-22T04:00:37.237Z,363
2023-03-22T04:01:22.740Z,359
2023-03-22T04:02:22.871Z,354
2023-03-22T04:03:22.522Z,348
2023-03-22T04:04:22.693Z,350
2023-03-22T04:05:22.418Z,365
2023-03-22T04:06:22.459Z,367
2023-03-22T04:07:21.751Z,360
2023-03-22T04:08:22.107Z,368
2023-03-22T04:09:22.469Z,372
2023-03-22T04:10:23.220Z,367
2023-03-22T04:11:22.051Z,368
2023-03-22T04:12:22.481Z,367
2023-03-22T04:14:21.951Z,374
2023-03-22T04:15:22.494Z,373
2023-03-22T04:16:22.388Z,367
2023-03-22T04:17:22.526Z,369
2023-03-22T04:18:21.948Z,370
2023-03-22T04:19:22.923Z,382
2023-03-22T04:20:44.664Z,376
2023-03-22T04:21:22.440Z,372
2023-03-22T04:22:22.266Z,381
2023-03-22T04:23:22.845Z,378
2023-03-22T04:24:23.070Z,379
2023-03-22T04:25:22.691Z,366
2023-03-22T04:26:22.268Z,371
2023-03-22T04:27:22.555Z,370
2023-03-22T04:28:22.073Z,369
2023-03-22T04:29:22.423Z,374
2023-03-22T04:30:22.147Z,368
2023-03-22T04:31:22.453Z,358
2023-03-22T04:32:22.037Z,365
2023-03-22T04:33:23.186Z,372
2023-03-22T04:34:22.519Z,375
2023-03-22T04:35:22.280Z,385
2023-03-22T04:36:22.883Z,383
2023-03-22T04:38:21.981Z,376
2023-03-22T04:39:22.636Z,373
2023-03-22T04:40:22.543Z,368
2023-03-22T04:41:22.870Z,365
2023-03-22T04:42:22.160Z,368
2023-03-22T04:43:22.613Z,374
2023-03-22T04:44:22.416Z,377
2023-03-22T04:45:22.678Z,375
2023-03-22T04:46:22.902Z,369
2023-03-22T04:47:22.537Z,377
2023-03-22T04:48:22.084Z,379
2023-03-22T04:49:22.545Z,374
2023-03-22T04:50:22.889Z,375
2023-03-22T04:52:22.451Z,373
2023-03-22T04:53:21.820Z,382
2023-03-22T04:54:22.650Z,377
2023-03-22T04:55:22.307Z,374
2023-03-22T04:56:22.386Z,373
2023-03-22T04:57:21.883Z,370
2023-03-22T04:58:22.166Z,371
2023-03-22T04:59:22.413Z,373
2023-03-22T05:00:24.077Z,377
2023-03-22T05:01:23.081Z,368
2023-03-22T05:02:22.958Z,371
2023-03-22T05:03:22.696Z,367
2023-03-22T05:04:22.245Z,358
2023-03-22T05:05:22.785Z,359
2023-03-22T05:06:22.864Z,362
2023-03-22T05:07:22.316Z,365
2023-03-22T05:08:21.846Z,367
2023-03-22T05:09:23.575Z,374
2023-03-22T05:10:22.437Z,368
2023-03-22T05:11:21.949Z,379
2023-03-22T05:12:22.288Z,385
2023-03-22T05:13:22.153Z,387
2023-03-22T05:15:23.252Z,379
2023-03-22T05:16:21.985Z,377
2023-03-22T05:17:22.310Z,381
2023-03-22T05:18:22.085Z,369
2023-03-22T05:19:22.660Z,363
2023-03-22T05:20:22.559Z,366
2023-03-22T05:21:22.318Z,377
2023-03-22T05:22:22.757Z,380
2023-03-22T05:23:21.994Z,376
2023-03-22T05:24:22.532Z,381
2023-03-22T05:26:22.586Z,378
2023-03-22T05:27:22.481Z,374
2023-03-22T05:28:21.719Z,377
2023-03-22T05:29:22.249Z,380
2023-03-22T05:30:22.933Z,390
2023-03-22T05:31:22.401Z,383
2023-03-22T05:32:22.597Z,371
2023-03-22T05:34:22.743Z,372
2023-03-22T05:35:22.423Z,376
2023-03-22T05:36:22.297Z,374
2023-03-22T05:37:22.727Z,373
2023-03-22T05:38:22.473Z,378
2023-03-22T05:39:22.415Z,373
2023-03-22T05:40:22.783Z,367
2023-03-22T05:41:22.790Z,368
2023-03-22T05:42:22.153Z,366
2023-03-22T05:43:21.763Z,371
2023-03-22T05:44:22.273Z,362
2023-03-22T05:45:23.150Z,369
2023-03-22T05:46:23.051Z,375
2023-03-22T05:47:22.599Z,378
2023-03-22T05:48:22.411Z,374
2023-03-22T05:49:22.161Z,370
2023-03-22T05:51:22.815Z,366
2023-03-22T05:52:22.450Z,368
2023-03-22T05:53:22.299Z,373
2023-03-22T05:54:23.277Z,361
2023-03-22T05:55:22.493Z,365
2023-03-22T05:56:22.316Z,362
2023-03-22T05:57:22.173Z,363
2023-03-22T05:58:22.909Z,378
2023-03-22T06:00:23.920Z,363
2023-03-22T06:01:22.852Z,364
2023-03-22T06:02:22.776Z,365
2023-03-22T06:03:22.802Z,364
2023-03-22T06:04:23.070Z,367
2023-03-22T06:05:22.374Z,370
2023-03-22T06:06:22.286Z,367
2023-03-22T06:07:22.749Z,358
2023-03-22T06:08:23.715Z,370
2023-03-22T06:09:28.320Z,368
2023-03-22T06:10:23.048Z,372
2023-03-22T06:11:22.707Z,379
2023-03-22T06:12:22.388Z,374
2023-03-22T06:13:22.489Z,360
2023-03-22T06:14:22.949Z,364
2023-03-22T06:15:23.019Z,371
2023-03-22T06:16:23.143Z,368
2023-03-22T06:17:22.337Z,360
2023-03-22T06:18:22.427Z,363
2023-03-22T06:19:22.722Z,367
2023-03-22T06:20:22.772Z,364
2023-03-22T06:21:22.565Z,354
2023-03-22T06:22:22.366Z,359
2023-03-22T06:24:22.406Z,366
2023-03-22T06:25:22.470Z,369
2023-03-22T06:26:22.514Z,361
2023-03-22T06:27:22.956Z,350
2023-03-22T06:28:22.253Z,354
2023-03-22T06:29:22.655Z,356
2023-03-22T06:30:23.135Z,349
2023-03-22T06:31:22.845Z,351
2023-03-22T06:32:22.957Z,352
2023-03-22T06:33:23.428Z,360
2023-03-22T06:34:23.306Z,374
2023-03-22T06:35:41.162Z,365
2023-03-22T06:37:23.271Z,359
2023-03-22T06:38:22.713Z,360
2023-03-22T06:39:22.705Z,359
2023-03-22T06:40:22.672Z,366
2023-03-22T06:41:22.314Z,353
2023-03-22T06:42:23.181Z,354
2023-03-22T06:43:22.773Z,351
2023-03-22T06:44:22.796Z,348
2023-03-22T06:45:23.341Z,343
2023-03-22T06:46:22.845Z,350
2023-03-22T06:47:22.926Z,354
2023-03-22T06:48:22.846Z,359
2023-03-22T06:49:22.771Z,365
2023-03-22T06:50:23.820Z,367
2023-03-22T06:51:23.918Z,356
2023-03-22T06:52:22.955Z,355
2023-03-22T06:53:23.715Z,356
2023-03-22T06:54:23.726Z,360
2023-03-22T06:55:22.832Z,355
2023-03-22T06:56:23.177Z,348
2023-03-22T06:57:22.748Z,349
2023-03-22T06:58:23.151Z,360
2023-03-22T07:00:26.079Z,356
2023-03-22T07:01:23.423Z,349
2023-03-22T07:02:22.966Z,350
2023-03-22T07:03:22.392Z,356
2023-03-22T07:04:23.078Z,354
2023-03-22T07:05:22.714Z,351
2023-03-22T07:06:22.930Z,363
2023-03-22T07:07:23.112Z,364
2023-03-22T07:08:22.296Z,355
2023-03-22T07:09:22.401Z,358
2023-03-22T07:10:22.496Z,366
2023-03-22T07:11:22.960Z,362
2023-03-22T07:12:22.938Z,352
2023-03-22T07:13:22.687Z,351
2023-03-22T07:14:22.750Z,359
2023-03-22T07:15:23.259Z,355
2023-03-22T07:17:22.697Z,367
2023-03-22T07:18:23.580Z,358
2023-03-22T07:19:23.443Z,352
2023-03-22T07:20:22.875Z,355
2023-03-22T07:21:23.005Z,354
2023-03-22T07:23:22.617Z,357
2023-03-22T07:24:22.659Z,351
2023-03-22T07:25:22.877Z,352
2023-03-22T07:26:23.920Z,341
2023-03-22T07:27:23.267Z,343
2023-03-22T07:28:22.833Z,341
2023-03-22T07:29:23.060Z,352
2023-03-22T07:31:23.033Z,354
2023-03-22T07:32:22.980Z,353
2023-03-22T07:33:23.035Z,345
2023-03-22T07:34:22.776Z,344
2023-03-22T07:35:26.294Z,346
2023-03-22T07:36:22.563Z,355
2023-03-22T07:37:23.208Z,354
2023-03-22T07:38:22.944Z,353
2023-03-22T07:39:22.913Z,368
2023-03-22T07:40:22.999Z,365
2023-03-22T07:41:22.479Z,354
2023-03-22T07:42:22.908Z,363
2023-03-22T07:43:22.494Z,365
2023-03-22T07:44:22.471Z,362
2023-03-22T07:45:22.879Z,349
2023-03-22T07:46:23.136Z,352
2023-03-22T07:47:39.467Z,344
2023-03-22T07:48:23.226Z,343
2023-03-22T07:49:22.985Z,348
2023-03-22T07:50:23.277Z,350
2023-03-22T07:51:23.577Z,344
2023-03-22T07:52:23.325Z,338
2023-03-22T07:53:23.067Z,346
2023-03-22T07:54:33.565Z,340
2023-03-22T07:55:22.466Z,346
2023-03-22T07:56:23.077Z,354
2023-03-22T07:57:22.865Z,358
2023-03-22T07:58:22.614Z,344
2023-03-22T07:59:22.971Z,337
2023-03-22T08:01:23.159Z,349
2023-03-22T08:02:23.187Z,358
2023-03-22T08:03:22.578Z,351
2023-03-22T08:04:22.781Z,338
2023-03-22T08:05:23.261Z,341
2023-03-22T08:06:22.881Z,349
2023-03-22T08:07:22.977Z,353
2023-03-22T08:09:22.652Z,357
2023-03-22T08:11:22.692Z,355
2023-03-22T08:12:23.020Z,347
2023-03-22T08:13:22.541Z,354
2023-03-22T08:15:23.596Z,351
2023-03-22T08:16:23.159Z,355
2023-03-22T08:17:23.604Z,351
2023-03-22T08:18:23.194Z,353
2023-03-22T08:19:23.212Z,366
2023-03-22T08:20:23.611Z,358
2023-03-22T08:21:23.024Z,356
2023-03-22T08:22:22.966Z,364
2023-03-22T08:23:38.482Z,359
2023-03-22T08:24:28.474Z,365
2023-03-22T08:25:23.144Z,352
2023-03-22T08:27:22.705Z,361
2023-03-22T08:28:22.915Z,358
2023-03-22T08:29:23.812Z,353
2023-03-22T08:30:23.802Z,362
2023-03-22T08:31:23.215Z,356
2023-03-22T08:32:22.711Z,353
2023-03-22T08:33:22.740Z,361
2023-03-22T08:34:23.276Z,363
2023-03-22T08:35:22.779Z,355
2023-03-22T08:36:23.849Z,358
2023-03-22T08:37:24.325Z,363
2023-03-22T08:38:22.867Z,361
2023-03-22T08:39:24.742Z,355
2023-03-22T08:40:23.439Z,347
2023-03-22T08:41:23.003Z,355
2023-03-22T08:42:22.866Z,342
2023-03-22T08:43:23.425Z,351
2023-03-22T08:44:23.751Z,360
2023-03-22T08:45:22.970Z,362
2023-03-22T08:46:23.439Z,359
2023-03-22T08:47:22.557Z,342
2023-03-22T08:48:22.740Z,343
2023-03-22T08:50:23.475Z,337
2023-03-22T08:51:22.660Z,349
2023-03-22T08:52:23.268Z,355
2023-03-22T08:53:23.059Z,346
2023-03-22T08:54:23.334Z,347
2023-03-22T08:55:22.989Z,354
2023-03-22T08:56:22.987Z,355
2023-03-22T08:57:23.253Z,352
2023-03-22T08:58:22.832Z,345
2023-03-22T08:59:23.244Z,339
2023-03-22T09:00:24.524Z,348
2023-03-22T09:01:23.410Z,351
2023-03-22T09:02:22.911Z,345
2023-03-22T09:04:23.952Z,346
2023-03-22T09:06:23.220Z,350
2023-03-22T09:07:22.849Z,352
2023-03-22T09:08:22.870Z,345
2023-03-22T09:09:23.117Z,342
2023-03-22T09:10:23.448Z,349
2023-03-22T09:12:22.781Z,358
2023-03-22T09:13:22.766Z,351
2023-03-22T09:14:23.122Z,344
2023-03-22T09:15:23.376Z,348
2023-03-22T09:17:25.779Z,349
2023-03-22T09:18:23.086Z,350
2023-03-22T09:19:23.141Z,352
2023-03-22T09:20:23.705Z,342
2023-03-22T09:21:23.293Z,344
2023-03-22T09:22:23.072Z,347
2023-03-22T09:23:22.899Z,352
2023-03-22T09:24:23.619Z,349
2023-03-22T09:25:24.100Z,352
2023-03-22T09:26:23.067Z,355
2023-03-22T09:27:22.627Z,356
2023-03-22T09:28:22.743Z,347
2023-03-22T09:29:23.816Z,350
2023-03-22T09:30:23.687Z,342
2023-03-22T09:32:23.064Z,346
2023-03-22T09:33:23.123Z,353
2023-03-22T09:34:24.356Z,355
2023-03-22T09:35:23.905Z,351
2023-03-22T09:36:23.698Z,353
2023-03-22T09:37:23.518Z,345
2023-03-22T09:38:23.359Z,351
2023-03-22T09:39:23.450Z,353
2023-03-22T09:40:23.476Z,355
2023-03-22T09:41:22.642Z,352
2023-03-22T09:42:23.200Z,358
2023-03-22T09:43:22.748Z,347
2023-03-22T09:44:23.448Z,336
2023-03-22T09:45:23.712Z,347
2023-03-22T09:46:22.989Z,343
2023-03-22T09:47:24.467Z,341
2023-03-22T09:48:23.355Z,332
2023-03-22T09:49:23.803Z,337
2023-03-22T09:50:22.899Z,342
2023-03-22T09:51:23.427Z,346
2023-03-22T09:52:23.076Z,338
2023-03-22T09:53:22.969Z,335
2023-03-22T09:54:23.331Z,346
2023-03-22T09:55:23.133Z,352
2023-03-22T09:56:23.366Z,349
2023-03-22T09:57:23.725Z,344
2023-03-22T09:58:23.001Z,345
2023-03-22T09:59:23.390Z,354
2023-03-22T10:00:24.482Z,356
2023-03-22T10:01:24.008Z,358
2023-03-22T10:02:23.696Z,360
2023-03-22T10:03:23.648Z,343
2023-03-22T10:05:25.916Z,348
2023-03-22T10:06:22.774Z,339
2023-03-22T10:07:22.408Z,340
2023-03-22T10:08:22.719Z,349
2023-03-22T10:09:23.833Z,342
2023-03-22T10:10:23.075Z,336
2023-03-22T10:11:23.124Z,342
2023-03-22T10:12:23.269Z,346
2023-03-22T10:13:23.202Z,339
2023-03-22T10:14:23.848Z,341
2023-03-22T10:15:23.807Z,344
2023-03-22T10:16:23.176Z,348
2023-03-22T10:17:23.297Z,331
2023-03-22T10:18:23.812Z,328
2023-03-22T10:19:23.241Z,332
2023-03-22T10:20:23.967Z,339
2023-03-22T10:22:23.101Z,350
2023-03-22T10:23:23.343Z,345
2023-03-22T10:24:24.284Z,340
2023-03-22T10:25:24.211Z,332
2023-03-22T10:26:23.333Z,338
2023-03-22T10:27:23.419Z,341
2023-03-22T10:28:23.893Z,339
2023-03-22T10:29:23.114Z,338
2023-03-22T10:30:24.132Z,341
2023-03-22T10:31:23.569Z,346
2023-03-22T10:32:23.759Z,353
2023-03-22T10:34:23.590Z,345
2023-03-22T10:35:23.302Z,336
2023-03-22T10:36:23.679Z,347
2023-03-22T10:37:23.893Z,352
2023-03-22T10:38:23.382Z,350
2023-03-22T10:39:23.697Z,344
2023-03-22T10:40:23.137Z,345
2023-03-22T10:41:24.148Z,336
2023-03-22T10:42:23.624Z,334
2023-03-22T10:43:23.387Z,345
2023-03-22T10:44:23.916Z,349
2023-03-22T10:45:24.896Z,345
2023-03-22T10:46:23.326Z,342
2023-03-22T10:47:23.549Z,336
2023-03-22T10:48:23.548Z,337
2023-03-22T10:49:23.709Z,350
2023-03-22T10:50:23.690Z,346
2023-03-22T10:51:23.601Z,345
2023-03-22T10:52:23.375Z,349
2023-03-22T10:53:23.740Z,344
2023-03-22T10:54:25.993Z,335
2023-03-22T10:55:24.274Z,338
2023-03-22T10:57:23.783Z,341
2023-03-22T10:58:23.568Z,336
2023-03-22T10:59:28.652Z,342
2023-03-22T11:00:26.140Z,354
2023-03-22T11:01:30.928Z,350
2023-03-22T11:02:25.191Z,339
2023-03-22T11:03:24.948Z,343
2023-03-22T11:04:24.607Z,341
2023-03-22T11:05:30.786Z,342
2023-03-22T11:06:23.474Z,339
2023-03-22T11:07:22.981Z,340
2023-03-22T11:08:23.353Z,343
2023-03-22T11:09:23.614Z,344
2023-03-22T11:10:24.217Z,347
2023-03-22T11:11:23.522Z,348
2023-03-22T11:12:23.602Z,343
2023-03-22T11:13:23.929Z,350
2023-03-22T11:14:24.281Z,353
2023-03-22T11:15:24.322Z,343
2023-03-22T11:16:23.455Z,331
2023-03-22T11:17:38.141Z,335
2023-03-22T11:18:23.870Z,334
2023-03-22T11:19:23.856Z,341
2023-03-22T11:20:23.401Z,346
2023-03-22T11:21:38.270Z,350
2023-03-22T11:23:23.618Z,347
2023-03-22T11:24:23.518Z,344
2023-03-22T11:25:42.844Z,348
2023-03-22T11:27:23.663Z,366
2023-03-22T11:28:23.706Z,359
2023-03-22T11:29:22.876Z,354
2023-03-22T11:30:23.708Z,356
2023-03-22T11:31:23.728Z,351
2023-03-22T11:32:23.577Z,345
2023-03-22T11:33:23.681Z,342
2023-03-22T11:34:23.661Z,349
2023-03-22T11:35:23.299Z,354
2023-03-22T11:36:23.242Z,344
2023-03-22T11:37:23.468Z,349
2023-03-22T11:38:23.853Z,351
2023-03-22T11:39:23.497Z,357
2023-03-22T11:40:24.385Z,353
2023-03-22T11:41:23.575Z,349
2023-03-22T11:42:23.521Z,346
2023-03-22T11:44:27.197Z,354
2023-03-22T11:45:24.393Z,341
2023-03-22T11:46:23.234Z,355
2023-03-22T11:48:28.111Z,351
2023-03-22T11:49:23.466Z,350
2023-03-22T11:50:23.717Z,349
2023-03-22T11:51:23.945Z,354
2023-03-22T11:53:23.466Z,345
2023-03-22T11:54:24.063Z,347
2023-03-22T11:55:24.316Z,355
2023-03-22T11:56:23.709Z,359
2023-03-22T11:57:23.751Z,365
2023-03-22T11:59:23.589Z,356
2023-03-22T12:00:24.080Z,353
2023-03-22T12:01:24.003Z,345
2023-03-22T12:02:24.187Z,350
2023-03-22T12:03:23.964Z,356
2023-03-22T12:04:24.452Z,363
2023-03-22T12:05:23.798Z,361
2023-03-22T12:06:23.467Z,351
2023-03-22T12:07:22.845Z,353
2023-03-22T12:08:23.055Z,342
2023-03-22T12:09:23.578Z,337
2023-03-22T12:10:23.743Z,334
2023-03-22T12:11:23.607Z,333
2023-03-22T12:12:23.241Z,338
2023-03-22T12:13:24.228Z,348
2023-03-22T12:14:24.062Z,358
2023-03-22T12:15:24.098Z,361
2023-03-22T12:16:24.944Z,354
2023-03-22T12:17:23.560Z,355
2023-03-22T12:18:23.623Z,349
2023-03-22T12:19:24.189Z,347
2023-03-22T12:20:24.380Z,346
2023-03-22T12:21:24.125Z,351
2023-03-22T12:22:24.637Z,360
2023-03-22T12:23:23.989Z,355
2023-03-22T12:24:24.445Z,353
2023-03-22T12:26:23.488Z,346
2023-03-22T12:27:23.874Z,351
2023-03-22T12:28:23.645Z,357
2023-03-22T12:29:24.243Z,351
2023-03-22T12:30:24.281Z,348
2023-03-22T12:31:23.797Z,351
2023-03-22T12:32:23.660Z,353
2023-03-22T12:33:24.040Z,359
2023-03-22T12:34:23.600Z,368
2023-03-22T12:35:23.914Z,362
2023-03-22T12:36:23.993Z,348
2023-03-22T12:37:23.362Z,352
2023-03-22T12:38:23.656Z,353
2023-03-22T12:39:24.383Z,347
2023-03-22T12:40:23.993Z,355
2023-03-22T12:41:23.295Z,363
2023-03-22T12:42:23.394Z,357
2023-03-22T12:43:23.007Z,354
2023-03-22T12:44:23.870Z,353
2023-03-22T12:45:24.132Z,352
2023-03-22T12:46:23.742Z,359
2023-03-22T12:47:24.814Z,360
2023-03-22T12:48:24.371Z,347
2023-03-22T12:49:24.324Z,346
2023-03-22T12:50:24.352Z,344
2023-03-22T12:51:23.731Z,330
2023-03-22T12:52:23.327Z,337
2023-03-22T12:53:23.601Z,344
2023-03-22T12:54:24.277Z,362
2023-03-22T12:55:24.669Z,355
2023-03-22T12:56:23.957Z,345
2023-03-22T12:58:23.549Z,350
2023-03-22T12:59:23.490Z,358
2023-03-22T13:00:25.172Z,355
2023-03-22T13:01:23.976Z,357
2023-03-22T13:02:23.521Z,345
2023-03-22T13:03:23.783Z,346
2023-03-22T13:04:23.520Z,349
2023-03-22T13:05:24.357Z,345
2023-03-22T13:06:23.171Z,343
2023-03-22T13:07:23.286Z,335
2023-03-22T13:08:23.553Z,341
2023-03-22T13:09:23.976Z,349
2023-03-22T13:10:24.043Z,341
2023-03-22T13:11:23.832Z,344
2023-03-22T13:12:23.266Z,351
2023-03-22T13:13:23.327Z,354
2023-03-22T13:14:23.258Z,348
2023-03-22T13:15:28.437Z,344
2023-03-22T13:16:23.209Z,341
2023-03-22T13:17:23.954Z,353
2023-03-22T13:19:23.497Z,356
2023-03-22T13:20:24.111Z,362
2023-03-22T13:22:29.152Z,361
2023-03-22T13:24:23.520Z,354
2023-03-22T13:26:28.839Z,344
2023-03-22T13:27:23.855Z,349
2023-03-22T13:29:23.897Z,346
2023-03-22T13:30:23.866Z,339
2023-03-22T13:31:23.997Z,346
2023-03-22T13:32:23.724Z,356
2023-03-22T13:33:23.433Z,346
2023-03-22T13:34:31.676Z,343
2023-03-22T13:35:23.967Z,348
2023-03-22T13:37:23.842Z,347
2023-03-22T13:38:23.891Z,343
2023-03-22T13:39:24.352Z,347
2023-03-22T13:40:23.849Z,346
2023-03-22T13:41:23.810Z,342
2023-03-22T13:42:23.501Z,346
2023-03-22T13:44:24.215Z,341
2023-03-22T13:45:24.420Z,339
2023-03-22T13:47:24.281Z,336
2023-03-22T13:48:23.638Z,346
2023-03-22T13:49:22.913Z,344
2023-03-22T13:50:23.631Z,347
2023-03-22T13:51:22.947Z,348
2023-03-22T13:52:23.996Z,342
2023-03-22T13:53:23.193Z,351
2023-03-22T13:54:23.499Z,346
2023-03-22T13:55:24.137Z,339
2023-03-22T13:57:23.298Z,346
2023-03-22T13:58:23.836Z,353
2023-03-22T13:59:23.865Z,355
2023-03-22T14:00:24.618Z,354
2023-03-22T14:01:23.619Z,348
2023-03-22T14:02:24.091Z,345
2023-03-22T14:03:23.573Z,346
2023-03-22T14:04:23.462Z,332
2023-03-22T14:05:23.752Z,339
2023-03-22T14:06:22.778Z,343
2023-03-22T14:07:23.017Z,349
2023-03-22T14:08:22.772Z,344
2023-03-22T14:09:24.103Z,349
2023-03-22T14:10:23.572Z,351
2023-03-22T14:11:23.680Z,350
2023-03-22T14:12:23.489Z,344
2023-03-22T14:13:23.112Z,336
2023-03-22T14:14:23.419Z,328
2023-03-22T14:15:24.507Z,339
2023-03-22T14:16:23.164Z,342
2023-03-22T14:17:23.583Z,341
2023-03-22T14:18:23.545Z,337
2023-03-22T14:19:23.682Z,341
2023-03-22T14:20:23.906Z,351
2023-03-22T14:21:23.801Z,354
2023-03-22T14:52:24.059Z,345
2023-03-22T14:53:24.282Z,344
2023-03-22T14:54:23.991Z,338
2023-03-22T14:56:23.565Z,350
2023-03-22T14:58:23.722Z,346
2023-03-22T14:59:23.513Z,341
2023-03-22T15:00:26.089Z,343
2023-03-22T15:01:23.803Z,337
2023-03-22T15:02:24.235Z,340
2023-03-22T15:03:24.816Z,346
2023-03-22T15:04:24.830Z,353
2023-03-22T15:05:24.457Z,349
2023-03-22T15:06:24.406Z,345
2023-03-22T15:08:23.827Z,342
2023-03-22T15:10:23.897Z,346
2023-03-22T15:11:23.593Z,352
2023-03-22T15:12:23.863Z,354
2023-03-22T15:13:23.713Z,351
2023-03-22T15:14:23.955Z,344
2023-03-22T15:15:23.605Z,341
2023-03-22T15:17:23.649Z,339
2023-03-22T15:18:23.221Z,338
2023-03-22T15:19:23.874Z,346
2023-03-22T15:21:23.176Z,342
2023-03-22T15:22:24.096Z,345
2023-03-22T15:23:23.592Z,343
2023-03-22T15:24:23.945Z,337
2023-03-22T15:25:24.143Z,342
2023-03-22T15:27:23.720Z,335
2023-03-22T15:28:24.034Z,347
2023-03-22T15:29:24.360Z,350
2023-03-22T15:31:23.335Z,361